Time;durP1;ratioP1;P1;durP2;ratioP2;P2;SDS_P1;SDS_P2;PMS_P1;PMS_P2;Temp;Humidity;BMP_temperature;BMP_pressure;BME280_temperature;BME280_humidity;BME280_pressure;Samples;Min_cycle;Max_cycle;Signal;HPM_P1;HPM_P2
2021/09/15 00:00:09;;;;;;;7.50;5.73;;;16.70;99.90;;;;;;5032429;28;20217;-69
2021/09/15 00:02:36;;;;;;;6.07;5.23;;;16.70;99.90;;;;;;5032367;28;20225;-68
2021/09/15 00:05:03;;;;;;;5.73;5.13;;;16.70;99.90;;;;;;5031572;28;20213;-69
2021/09/15 00:07:30;;;;;;;7.20;6.00;;;16.70;99.90;;;;;;5031560;28;20610;-69
2021/09/15 00:09:58;;;;;;;7.70;5.67;;;16.70;99.90;;;;;;5032485;28;20221;-69
2021/09/15 00:12:25;;;;;;;6.50;5.40;;;16.60;99.90;;;;;;5032301;28;20202;-69
2021/09/15 00:14:51;;;;;;;6.43;5.83;;;16.60;99.90;;;;;;5032002;28;20214;-68
2021/09/15 00:17:19;;;;;;;8.23;6.30;;;16.70;99.90;;;;;;5023708;28;20203;-69
2021/09/15 00:19:46;;;;;;;8.37;6.37;;;16.70;99.90;;;;;;5031651;28;20663;-70
2021/09/15 00:22:13;;;;;;;9.73;6.23;;;16.70;99.90;;;;;;5032221;28;20217;-69
2021/09/15 00:24:39;;;;;;;8.33;7.00;;;16.60;99.90;;;;;;5024881;28;20214;-69
2021/09/15 00:27:07;;;;;;;8.70;6.87;;;16.70;99.90;;;;;;5031850;28;20218;-69
2021/09/15 00:29:34;;;;;;;13.50;7.13;;;16.60;99.90;;;;;;5031808;28;20718;-68
2021/09/15 00:32:01;;;;;;;9.83;7.23;;;16.60;99.90;;;;;;5031910;28;20213;-69
2021/09/15 00:34:30;;;;;;;9.50;7.73;;;16.60;99.90;;;;;;5031429;28;20214;-69
2021/09/15 00:36:57;;;;;;;11.87;7.60;;;16.60;99.90;;;;;;5030158;28;20230;-70
2021/09/15 00:39:24;;;;;;;9.07;7.77;;;16.60;99.90;;;;;;5025065;28;20207;-69
2021/09/15 00:41:50;;;;;;;10.27;8.20;;;16.60;99.90;;;;;;5031717;28;20198;-69
2021/09/15 00:44:19;;;;;;;10.50;8.40;;;16.60;99.90;;;;;;5029739;28;20203;-68
2021/09/15 00:46:46;;;;;;;9.27;7.93;;;16.70;99.90;;;;;;5030680;28;20202;-69
2021/09/15 00:49:13;;;;;;;11.73;8.50;;;16.50;99.90;;;;;;5031596;28;20230;-69
2021/09/15 00:51:42;;;;;;;9.97;8.27;;;16.50;99.90;;;;;;5031618;28;20545;-68
2021/09/15 00:54:10;;;;;;;9.57;8.43;;;16.50;99.90;;;;;;5031518;28;20223;-68
2021/09/15 00:56:37;;;;;;;12.67;8.70;;;16.50;99.90;;;;;;5031408;28;20215;-68
2021/09/15 00:59:04;;;;;;;10.70;8.60;;;16.40;99.90;;;;;;5031067;28;20586;-69
2021/09/15 01:01:32;;;;;;;10.80;8.93;;;16.40;99.90;;;;;;5031288;28;20671;-68
2021/09/15 01:04:00;;;;;;;11.73;8.77;;;16.40;99.90;;;;;;5031264;28;20218;-68
2021/09/15 01:06:29;;;;;;;11.30;8.93;;;16.30;99.90;;;;;;5030184;28;20249;-69
2021/09/15 01:08:58;;;;;;;8.87;7.57;;;16.30;99.90;;;;;;5030877;28;20219;-68
2021/09/15 01:11:25;;;;;;;10.53;8.63;;;16.30;99.90;;;;;;5031083;28;20234;-68
2021/09/15 01:13:52;;;;;;;11.93;8.90;;;16.30;99.90;;;;;;5032770;28;20206;-69
2021/09/15 01:16:19;;;;;;;9.53;8.37;;;16.30;99.90;;;;;;5031383;28;20284;-69
2021/09/15 01:18:48;;;;;;;12.60;9.33;;;16.30;99.90;;;;;;5031950;28;20295;-69
2021/09/15 01:21:16;;;;;;;11.27;8.83;;;16.20;99.90;;;;;;5031356;28;20211;-69
2021/09/15 01:23:43;;;;;;;10.77;8.30;;;16.30;99.90;;;;;;5030860;28;20211;-68
2021/09/15 01:26:09;;;;;;;12.63;8.37;;;16.20;99.90;;;;;;5033795;28;20208;-69
2021/09/15 01:28:36;;;;;;;9.43;8.13;;;16.20;99.90;;;;;;5029567;28;20233;-69
2021/09/15 01:31:03;;;;;;;8.53;7.30;;;16.30;99.90;;;;;;5031025;28;20628;-68
2021/09/15 01:33:30;;;;;;;9.47;8.30;;;16.30;99.90;;;;;;5031090;28;20207;-68
2021/09/15 01:35:56;;;;;;;8.27;7.47;;;16.30;99.90;;;;;;5031285;28;20730;-68
2021/09/15 01:38:24;;;;;;;8.80;7.90;;;16.30;99.90;;;;;;5029864;28;20215;-68
2021/09/15 01:40:51;;;;;;;10.20;7.97;;;16.20;99.90;;;;;;5030977;28;20206;-69
2021/09/15 01:43:18;;;;;;;11.13;7.83;;;16.30;99.90;;;;;;5030574;28;20217;-68
2021/09/15 01:45:45;;;;;;;10.73;8.37;;;16.30;99.90;;;;;;5030556;28;20213;-67
2021/09/15 01:48:12;;;;;;;10.83;8.07;;;16.30;99.90;;;;;;5030615;28;20230;-68
2021/09/15 01:50:39;;;;;;;11.43;8.90;;;16.20;99.90;;;;;;5031229;28;20203;-68
2021/09/15 01:53:06;;;;;;;8.97;7.80;;;16.30;99.90;;;;;;5030617;28;20222;-68
2021/09/15 01:55:34;;;;;;;10.63;8.90;;;16.30;99.90;;;;;;5031048;28;20574;-69
2021/09/15 01:58:00;;;;;;;12.77;7.87;;;16.30;99.90;;;;;;5030002;28;20202;-69
2021/09/15 02:00:27;;;;;;;8.63;7.70;;;16.30;99.90;;;;;;5030828;28;20215;-67
2021/09/15 02:02:54;;;;;;;10.67;8.50;;;16.30;99.90;;;;;;5030247;28;20210;-68
2021/09/15 02:05:21;;;;;;;10.10;8.07;;;16.20;99.90;;;;;;5030598;28;20739;-69
2021/09/15 02:07:47;;;;;;;9.27;7.87;;;16.20;99.90;;;;;;5029571;28;20242;-68
2021/09/15 02:10:14;;;;;;;10.93;8.23;;;16.20;99.90;;;;;;5030866;28;20202;-68
2021/09/15 02:12:42;;;;;;;10.13;7.63;;;16.20;99.90;;;;;;5030842;28;20218;-69
2021/09/15 02:15:12;;;;;;;9.40;7.87;;;16.20;99.90;;;;;;5032978;28;20214;-69
2021/09/15 02:17:39;;;;;;;12.13;8.07;;;16.20;99.90;;;;;;5031425;28;20222;-70
2021/09/15 02:20:08;;;;;;;10.30;8.10;;;16.20;99.90;;;;;;5034870;28;20210;-68
2021/09/15 02:22:35;;;;;;;9.47;8.10;;;16.20;99.90;;;;;;5034415;28;20654;-68
2021/09/15 02:25:03;;;;;;;8.57;7.60;;;16.20;99.90;;;;;;5033891;28;20666;-68
2021/09/15 02:27:30;;;;;;;10.80;7.90;;;16.10;99.90;;;;;;5034132;28;20211;-68
2021/09/15 02:29:58;;;;;;;11.23;7.43;;;16.10;99.90;;;;;;5033890;28;20226;-68
2021/09/15 02:32:25;;;;;;;9.13;7.50;;;16.10;99.90;;;;;;5034383;28;20217;-68
2021/09/15 02:34:52;;;;;;;10.13;7.60;;;16.10;99.90;;;;;;5033580;28;20206;-68
2021/09/15 02:37:19;;;;;;;9.40;7.60;;;16.10;99.90;;;;;;5033577;28;20230;-68
2021/09/15 02:39:46;;;;;;;11.20;8.20;;;16.10;99.90;;;;;;5034375;28;20209;-67
2021/09/15 02:42:12;;;;;;;11.57;8.30;;;16.10;99.90;;;;;;5033982;28;20209;-68
2021/09/15 02:44:39;;;;;;;9.17;8.10;;;16.10;99.90;;;;;;5033626;28;20252;-68
2021/09/15 02:47:07;;;;;;;13.20;9.13;;;16.10;99.90;;;;;;5035187;28;20205;-68
2021/09/15 02:49:34;;;;;;;12.23;8.63;;;16.10;99.90;;;;;;5033436;28;20692;-68
2021/09/15 02:52:01;;;;;;;10.63;8.30;;;16.20;99.90;;;;;;5041319;28;20210;-68
2021/09/15 02:54:28;;;;;;;9.17;7.93;;;16.20;99.90;;;;;;5033730;28;20207;-68
2021/09/15 02:56:54;;;;;;;11.27;8.13;;;16.10;99.90;;;;;;5033359;28;20213;-68
2021/09/15 02:59:21;;;;;;;10.13;8.00;;;16.20;99.90;;;;;;5033819;28;20580;-68
2021/09/15 03:01:48;;;;;;;12.03;8.27;;;16.20;99.90;;;;;;5033497;28;20213;-68
2021/09/15 03:04:16;;;;;;;8.87;7.97;;;16.20;99.90;;;;;;5033679;28;20240;-67
2021/09/15 03:06:42;;;;;;;9.47;7.80;;;16.30;99.90;;;;;;5033374;28;20242;-68
2021/09/15 03:09:09;;;;;;;15.83;8.00;;;16.20;99.90;;;;;;5033570;28;20318;-68
2021/09/15 03:11:36;;;;;;;8.93;7.37;;;16.30;99.90;;;;;;5033673;28;20218;-68
2021/09/15 03:14:03;;;;;;;9.63;7.83;;;16.30;99.90;;;;;;5033403;28;20222;-69
2021/09/15 03:16:30;;;;;;;9.57;7.37;;;16.30;99.90;;;;;;5033178;28;20206;-68
2021/09/15 03:18:57;;;;;;;10.50;8.47;;;16.40;99.90;;;;;;5033642;28;20209;-68
2021/09/15 03:21:25;;;;;;;9.77;7.73;;;16.40;99.90;;;;;;5033688;28;20202;-68
2021/09/15 03:23:52;;;;;;;10.60;8.80;;;16.40;99.90;;;;;;5032811;28;20215;-68
2021/09/15 03:26:19;;;;;;;11.73;8.37;;;16.40;99.90;;;;;;5032838;28;20211;-68
2021/09/15 03:28:45;;;;;;;14.83;8.27;;;16.40;99.90;;;;;;5032320;28;20226;-68
2021/09/15 03:31:12;;;;;;;10.27;8.30;;;16.50;99.90;;;;;;5034564;28;20207;-68
2021/09/15 03:33:39;;;;;;;11.70;8.37;;;16.50;99.90;;;;;;5032026;28;20769;-67
2021/09/15 03:36:06;;;;;;;12.97;8.13;;;16.50;99.90;;;;;;5032798;28;20725;-68
2021/09/15 03:38:34;;;;;;;11.80;8.53;;;16.60;99.90;;;;;;5033079;28;20211;-68
2021/09/15 03:41:01;;;;;;;9.80;8.60;;;16.60;99.90;;;;;;5033148;28;20675;-68
2021/09/15 03:43:27;;;;;;;11.43;8.83;;;16.60;99.90;;;;;;5032108;28;20207;-68
2021/09/15 03:45:54;;;;;;;12.07;8.07;;;16.60;99.90;;;;;;5032948;28;20667;-68
2021/09/15 03:48:21;;;;;;;10.83;8.23;;;16.60;99.90;;;;;;5033115;28;20214;-68
2021/09/15 03:50:47;;;;;;;14.93;7.73;;;16.70;99.90;;;;;;5038261;28;20206;-68
2021/09/15 03:53:14;;;;;;;12.17;9.00;;;16.60;99.90;;;;;;5041105;28;20218;-69
2021/09/15 03:55:42;;;;;;;12.60;9.17;;;16.70;99.90;;;;;;5032667;28;20203;-68
2021/09/15 03:58:09;;;;;;;11.17;9.07;;;16.70;99.90;;;;;;5032259;28;20659;-68
2021/09/15 04:00:36;;;;;;;14.60;10.17;;;16.70;99.90;;;;;;5032378;28;20203;-68
2021/09/15 04:03:03;;;;;;;14.33;10.03;;;16.70;99.90;;;;;;5031900;28;20663;-67
2021/09/15 04:05:30;;;;;;;11.50;9.17;;;16.70;99.90;;;;;;5031745;28;20210;-67
2021/09/15 04:07:56;;;;;;;10.07;8.90;;;16.70;99.90;;;;;;5018457;28;20230;-68
2021/09/15 04:10:23;;;;;;;12.67;9.17;;;16.70;99.90;;;;;;5032104;28;20317;-70
2021/09/15 04:12:51;;;;;;;15.80;9.10;;;16.70;99.90;;;;;;5031877;28;20556;-68
2021/09/15 04:15:18;;;;;;;13.00;9.20;;;16.70;99.90;;;;;;5032037;28;20559;-69
2021/09/15 04:17:45;;;;;;;13.07;9.87;;;16.70;99.90;;;;;;5031988;28;20206;-68
2021/09/15 04:20:13;;;;;;;15.87;9.13;;;16.70;99.90;;;;;;5032040;28;20211;-68
2021/09/15 04:22:41;;;;;;;13.03;9.43;;;16.60;99.90;;;;;;5032129;28;20217;-68
2021/09/15 04:33:22;;;;;;;12.43;10.07;;;16.50;99.90;;;;;;5026253;28;20254;-68
2021/09/15 04:35:49;;;;;;;13.70;11.07;;;16.40;99.90;;;;;;5022381;28;20218;-68
2021/09/15 04:38:16;;;;;;;17.23;9.53;;;16.40;99.90;;;;;;5022057;28;20210;-68
2021/09/15 04:40:43;;;;;;;14.37;9.30;;;16.40;99.90;;;;;;5024590;28;20204;-67
2021/09/15 04:43:11;;;;;;;12.07;9.63;;;16.40;99.90;;;;;;5021719;28;20215;-67
2021/09/15 04:45:37;;;;;;;12.43;10.33;;;16.30;99.90;;;;;;5022788;28;20206;-67
2021/09/15 04:48:05;;;;;;;13.47;10.17;;;16.40;99.90;;;;;;5031321;28;20333;-67
2021/09/15 04:50:31;;;;;;;13.07;10.30;;;16.40;99.90;;;;;;5034494;28;20781;-67
2021/09/15 04:52:58;;;;;;;15.17;9.83;;;16.40;99.90;;;;;;5042340;28;20207;-68
2021/09/15 04:55:25;;;;;;;13.93;10.43;;;16.40;99.90;;;;;;5031567;28;20237;-67
2021/09/15 04:57:52;;;;;;;11.27;8.97;;;16.40;99.90;;;;;;5031863;28;20816;-67
2021/09/15 05:00:20;;;;;;;14.17;9.07;;;16.40;99.90;;;;;;5031083;28;20574;-68
2021/09/15 05:02:47;;;;;;;10.17;8.53;;;16.40;99.90;;;;;;5030068;28;20207;-68
2021/09/15 05:05:14;;;;;;;10.80;8.70;;;16.40;99.90;;;;;;5030935;28;20655;-68
2021/09/15 05:07:40;;;;;;;13.73;8.77;;;16.40;99.90;;;;;;5018955;28;20250;-68
2021/09/15 05:10:09;;;;;;;12.77;9.50;;;16.40;99.90;;;;;;5031373;28;20226;-67
2021/09/15 05:12:36;;;;;;;16.17;10.43;;;16.40;99.90;;;;;;5030810;28;20210;-66
2021/09/15 05:15:03;;;;;;;13.80;10.33;;;16.50;99.90;;;;;;5031678;28;20213;-67
2021/09/15 05:17:31;;;;;;;15.53;10.27;;;16.50;99.90;;;;;;5030066;28;20210;-69
2021/09/15 05:19:58;;;;;;;15.23;10.23;;;16.50;99.90;;;;;;5030603;28;20218;-68
2021/09/15 05:22:24;;;;;;;15.40;9.43;;;16.60;99.90;;;;;;5030103;28;20202;-68
2021/09/15 05:24:51;;;;;;;18.37;10.50;;;16.50;99.90;;;;;;5023933;28;20214;-69
2021/09/15 05:27:18;;;;;;;13.13;9.60;;;16.60;99.90;;;;;;5030650;28;20198;-68
2021/09/15 05:29:46;;;;;;;12.27;9.10;;;16.50;99.90;;;;;;5030492;28;20226;-67
2021/09/15 05:32:13;;;;;;;17.20;10.10;;;16.60;99.90;;;;;;5031468;28;20242;-67
2021/09/15 05:34:41;;;;;;;17.03;9.90;;;16.60;99.90;;;;;;5029948;28;20210;-67
2021/09/15 05:37:08;;;;;;;12.93;9.30;;;16.60;99.90;;;;;;5030421;28;20238;-67
2021/09/15 05:39:35;;;;;;;11.80;9.00;;;16.70;99.90;;;;;;5030824;28;20202;-66
2021/09/15 05:42:01;;;;;;;14.83;9.53;;;16.80;99.90;;;;;;5030506;28;20202;-69
2021/09/15 05:44:28;;;;;;;13.57;9.10;;;16.90;99.90;;;;;;5030064;28;20215;-69
2021/09/15 05:46:55;;;;;;;16.10;9.23;;;17.00;99.90;;;;;;5030984;28;20211;-66
2021/09/15 05:49:22;;;;;;;13.33;9.60;;;17.00;99.90;;;;;;5030792;28;20234;-67
2021/09/15 05:51:50;;;;;;;13.50;9.40;;;17.10;99.90;;;;;;5030527;28;20207;-67
2021/09/15 05:54:16;;;;;;;13.87;8.80;;;17.20;99.90;;;;;;5033701;28;20211;-67
2021/09/15 05:56:43;;;;;;;13.47;9.30;;;17.30;99.90;;;;;;5035909;28;20218;-66
2021/09/15 05:59:10;;;;;;;13.33;9.20;;;17.30;99.90;;;;;;5034852;28;20206;-66
2021/09/15 06:01:37;;;;;;;13.00;8.50;;;17.50;99.90;;;;;;5034947;28;20217;-66
2021/09/15 06:04:04;;;;;;;12.70;8.50;;;17.70;99.90;;;;;;5033415;28;20207;-67
2021/09/15 06:06:31;;;;;;;13.03;8.57;;;17.90;99.90;;;;;;5034121;28;20237;-67
2021/09/15 06:08:59;;;;;;;13.60;8.57;;;17.90;99.90;;;;;;5034062;28;20211;-67
2021/09/15 06:11:26;;;;;;;15.40;9.00;;;17.90;99.90;;;;;;5025816;28;20203;-67
2021/09/15 06:13:54;;;;;;;8.80;7.53;;;17.90;99.90;;;;;;5027786;28;20218;-68
2021/09/15 06:16:21;;;;;;;10.43;8.20;;;17.90;99.90;;;;;;5035102;28;20241;-67
2021/09/15 06:18:48;;;;;;;9.20;7.57;;;17.90;99.90;;;;;;5036029;28;20210;-66
2021/09/15 06:21:15;;;;;;;14.23;8.30;;;17.90;99.90;;;;;;5031316;28;20203;-67
2021/09/15 06:23:42;;;;;;;10.07;7.43;;;17.90;99.90;;;;;;5027619;28;20211;-68
2021/09/15 06:26:10;;;;;;;10.07;6.63;;;18.00;99.90;;;;;;5033049;28;20218;-67
2021/09/15 06:28:37;;;;;;;9.15;7.35;;;18.10;99.90;;;;;;5029616;28;20663;-68
2021/09/15 06:31:05;;;;;;;10.25;7.00;;;18.20;99.90;;;;;;5033004;28;20225;-68
2021/09/15 06:33:32;;;;;;;8.38;6.88;;;18.30;99.90;;;;;;5033792;28;20203;-66
2021/09/15 06:36:00;;;;;;;10.70;6.97;;;18.40;99.90;;;;;;5033330;28;20234;-67
2021/09/15 06:38:27;;;;;;;12.20;6.70;;;18.40;99.90;;;;;;5031355;28;20213;-66
2021/09/15 06:40:53;;;;;;;10.30;6.78;;;18.50;99.90;;;;;;5033803;28;20566;-66
2021/09/15 06:43:21;;;;;;;8.43;6.18;;;18.60;99.90;;;;;;5032280;28;20235;-65
2021/09/15 06:45:48;;;;;;;12.57;6.67;;;18.70;99.90;;;;;;5033999;28;20207;-65
2021/09/15 06:48:15;;;;;;;7.60;6.45;;;18.70;99.90;;;;;;5034100;28;20210;-67
2021/09/15 06:50:42;;;;;;;17.08;8.30;;;18.80;99.90;;;;;;5037624;28;20229;-66
2021/09/15 06:53:09;;;;;;;10.50;8.30;;;18.80;99.90;;;;;;5042783;28;20210;-67
2021/09/15 06:55:35;;;;;;;13.35;7.43;;;18.80;99.90;;;;;;5032973;28;20543;-67
2021/09/15 06:58:02;;;;;;;9.18;6.25;;;18.90;99.90;;;;;;5033792;28;20242;-67
2021/09/15 07:00:30;;;;;;;8.73;6.53;;;19.00;99.90;;;;;;5032625;28;20214;-66
2021/09/15 07:02:57;;;;;;;9.60;7.22;;;19.00;99.90;;;;;;5028450;28;20210;-67
2021/09/15 07:05:24;;;;;;;8.27;6.45;;;19.00;99.90;;;;;;5031515;28;20211;-67
2021/09/15 07:07:51;;;;;;;10.60;8.43;;;19.10;99.90;;;;;;5027560;28;20231;-67
2021/09/15 07:10:18;;;;;;;10.70;8.30;;;19.10;99.90;;;;;;5033349;28;20226;-67
2021/09/15 07:12:47;;;;;;;9.65;7.55;;;19.20;99.90;;;;;;5020539;28;20230;-66
2021/09/15 07:15:15;;;;;;;12.07;8.98;;;19.20;99.90;;;;;;5012766;28;20587;-66
2021/09/15 07:17:44;;;;;;;11.02;8.70;;;19.30;99.90;;;;;;5024297;28;20237;-66
2021/09/15 07:20:12;;;;;;;11.25;8.50;;;19.50;99.90;;;;;;5026468;28;20207;-66
2021/09/15 07:22:39;;;;;;;14.38;9.73;;;19.60;99.90;;;;;;5013022;28;20207;-65
2021/09/15 07:25:06;;;;;;;11.90;8.88;;;19.70;99.90;;;;;;5019723;28;20203;-65
2021/09/15 07:27:33;;;;;;;13.52;9.73;;;19.80;99.90;;;;;;5019425;28;20215;-66
2021/09/15 07:30:00;;;;;;;14.05;10.25;;;19.90;99.90;;;;;;5026651;28;20226;-66
2021/09/15 07:32:28;;;;;;;13.60;11.05;;;20.00;99.90;;;;;;5023958;28;20207;-66
2021/09/15 07:34:56;;;;;;;14.98;11.05;;;20.20;99.90;;;;;;5013087;28;20214;-67
2021/09/15 07:37:23;;;;;;;12.32;10.13;;;19.90;99.90;;;;;;5031243;28;20230;-65
2021/09/15 07:39:50;;;;;;;14.40;10.18;;;20.30;99.90;;;;;;5021905;28;20207;-65
2021/09/15 07:42:16;;;;;;;13.75;10.93;;;20.30;99.90;;;;;;5030939;28;20206;-66
2021/09/15 07:44:43;;;;;;;12.70;10.45;;;20.40;99.90;;;;;;5031329;28;20214;-67
2021/09/15 07:47:15;;;;;;;13.05;10.98;;;20.40;99.90;;;;;;5032612;28;20601;-65
2021/09/15 07:49:42;;;;;;;10.73;9.63;;;20.50;99.90;;;;;;5026513;28;20581;-65
2021/09/15 07:52:10;;;;;;;13.30;9.70;;;20.60;99.90;;;;;;5032288;28;20217;-65
2021/09/15 07:54:37;;;;;;;13.38;10.23;;;20.70;99.90;;;;;;5032855;28;20210;-65
2021/09/15 07:57:04;;;;;;;11.77;8.43;;;20.80;99.90;;;;;;5032131;28;20655;-66
2021/09/15 07:59:31;;;;;;;10.70;8.48;;;20.90;99.90;;;;;;5035281;28;20214;-65
2021/09/15 08:01:58;;;;;;;9.45;8.45;;;20.90;99.90;;;;;;5030738;28;20695;-66
2021/09/15 08:04:25;;;;;;;8.80;7.40;;;21.00;99.90;;;;;;5031261;28;20226;-65
2021/09/15 08:06:52;;;;;;;10.18;7.53;;;21.10;99.90;;;;;;5031498;28;20575;-66
2021/09/15 08:09:20;;;;;;;9.32;7.90;;;21.10;99.90;;;;;;5031370;28;20206;-66
2021/09/15 08:11:47;;;;;;;9.05;7.78;;;21.30;99.90;;;;;;5030946;28;20223;-67
2021/09/15 08:14:14;;;;;;;8.82;7.38;;;21.40;99.90;;;;;;5031283;28;20210;-66
2021/09/15 08:16:40;;;;;;;10.57;7.70;;;21.60;99.90;;;;;;5031196;28;20207;-66
2021/09/15 08:19:07;;;;;;;7.95;7.00;;;21.70;99.90;;;;;;5031202;28;20206;-66
2021/09/15 08:21:34;;;;;;;8.48;7.50;;;21.80;99.90;;;;;;5032138;28;20686;-66
2021/09/15 08:24:01;;;;;;;9.80;7.07;;;21.90;99.90;;;;;;5027305;28;20203;-66
2021/09/15 08:26:29;;;;;;;11.18;6.75;;;22.10;99.90;;;;;;5029843;28;20206;-65
2021/09/15 08:28:55;;;;;;;9.85;7.57;;;22.30;99.90;;;;;;5030358;28;20620;-66
2021/09/15 08:31:22;;;;;;;11.93;7.43;;;22.40;99.90;;;;;;5030162;28;20218;-66
2021/09/15 08:33:49;;;;;;;12.88;7.22;;;22.60;99.90;;;;;;5031048;28;20731;-65
2021/09/15 08:36:16;;;;;;;13.38;7.53;;;22.60;99.90;;;;;;5030938;28;20551;-66
2021/09/15 08:38:43;;;;;;;13.48;7.80;;;22.70;99.90;;;;;;5030929;28;20361;-67
2021/09/15 08:41:09;;;;;;;9.80;6.40;;;22.80;99.90;;;;;;5031358;28;20642;-66
2021/09/15 08:43:38;;;;;;;10.43;6.97;;;22.80;99.90;;;;;;5030763;28;20249;-65
2021/09/15 08:46:05;;;;;;;8.25;5.90;;;23.00;99.90;;;;;;5031129;28;20671;-65
2021/09/15 08:48:37;;;;;;;8.98;5.80;;;23.10;99.90;;;;;;5030498;28;20373;-66
2021/09/15 08:51:05;;;;;;;9.30;7.18;;;23.30;99.90;;;;;;5033795;28;20218;-66
2021/09/15 08:53:31;;;;;;;9.10;6.68;;;23.30;99.90;;;;;;5035963;28;20217;-66
2021/09/15 08:55:58;;;;;;;9.50;6.40;;;23.40;99.90;;;;;;5030309;28;20206;-65
2021/09/15 08:58:25;;;;;;;8.20;6.13;;;23.70;99.90;;;;;;5020797;28;20207;-66
2021/09/15 09:01:07;;;;;;;7.68;5.10;;;24.00;99.90;;;;;;5029133;28;20537;-65
2021/09/15 09:03:37;;;;;;;7.55;5.97;;;24.30;99.90;;;;;;5030435;28;20210;-65
2021/09/15 09:06:10;;;;;;;8.63;5.97;;;24.60;99.30;;;;;;5030646;28;20206;-66
2021/09/15 09:08:39;;;;;;;7.45;5.95;;;24.90;99.20;;;;;;5030717;28;20625;-67
2021/09/15 09:11:06;;;;;;;5.55;5.05;;;25.70;99.70;;;;;;5029590;28;20268;-66
2021/09/15 09:13:34;;;;;;;7.25;4.78;;;28.20;94.30;;;;;;5029527;28;20675;-65
2021/09/15 09:16:02;;;;;;;5.18;4.72;;;31.40;81.90;;;;;;5024762;28;20624;-65
2021/09/15 09:18:29;;;;;;;4.93;4.45;;;34.10;64.30;;;;;;5030501;28;20421;-66
2021/09/15 09:20:56;;;;;;;5.43;4.88;;;36.00;56.40;;;;;;5029251;28;20209;-65
2021/09/15 09:23:23;;;;;;;4.80;4.30;;;37.70;50.30;;;;;;5026751;28;20207;-67
2021/09/15 09:25:53;;;;;;;5.68;4.40;;;39.40;46.30;;;;;;5029875;28;20293;-66
2021/09/15 09:28:23;;;;;;;6.78;4.40;;;40.60;42.80;;;;;;5028578;28;20210;-67
2021/09/15 09:30:51;;;;;;;4.35;3.75;;;41.20;41.10;;;;;;5029498;28;20306;-65
2021/09/15 09:33:20;;;;;;;5.28;4.53;;;41.70;39.60;;;;;;5033283;28;20203;-65
2021/09/15 09:35:48;;;;;;;5.95;4.93;;;42.20;38.80;;;;;;5034394;28;20226;-67
2021/09/15 09:38:24;;;;;;;5.93;4.93;;;42.60;37.80;;;;;;5033703;28;20198;-67
2021/09/15 09:41:05;;;;;;;5.78;4.85;;;43.40;36.30;;;;;;5034984;28;20194;-66
2021/09/15 09:43:34;;;;;;;6.50;5.68;;;43.70;36.00;;;;;;5034921;28;20281;-66
2021/09/15 09:46:02;;;;;;;6.40;5.10;;;43.90;35.70;;;;;;5027183;28;20564;-67
2021/09/15 09:48:36;;;;;;;6.97;5.10;;;44.00;34.20;;;;;;5033988;28;20305;-67
2021/09/15 09:51:05;;;;;;;6.03;5.38;;;43.70;34.90;;;;;;5033517;28;20218;-66
2021/09/15 09:53:32;;;;;;;8.00;5.60;;;43.10;35.40;;;;;;5034003;28;20211;-67
2021/09/15 09:56:00;;;;;;;5.05;4.60;;;42.60;35.80;;;;;;5034500;28;20217;-66
2021/09/15 09:58:29;;;;;;;6.63;4.80;;;42.70;36.00;;;;;;5033862;28;20206;-68
2021/09/15 10:00:57;;;;;;;8.93;5.40;;;42.90;35.40;;;;;;5034216;28;20242;-69
2021/09/15 10:03:24;;;;;;;6.32;5.32;;;42.50;35.20;;;;;;5033912;28;20210;-67
2021/09/15 10:05:53;;;;;;;7.18;5.20;;;41.80;36.30;;;;;;5034121;28;20207;-68
2021/09/15 10:08:20;;;;;;;8.27;5.72;;;41.40;36.60;;;;;;5033577;28;20234;-66
2021/09/15 10:10:51;;;;;;;7.50;6.05;;;40.80;37.40;;;;;;5034063;28;20234;-67
2021/09/15 10:13:18;;;;;;;5.60;4.90;;;39.70;36.30;;;;;;5033112;28;20213;-68
2021/09/15 10:15:52;;;;;;;6.47;5.88;;;38.80;39.20;;;;;;5034350;28;20312;-68
2021/09/15 10:18:21;;;;;;;6.20;5.65;;;37.90;38.50;;;;;;5033511;28;20307;-68
2021/09/15 10:20:53;;;;;;;5.93;5.43;;;37.30;41.40;;;;;;5033653;28;20238;-68
2021/09/15 10:23:40;;;;;;;8.20;5.18;;;37.50;40.50;;;;;;5030701;28;20203;-67
2021/09/15 10:26:29;;;;;;;5.68;5.07;;;37.80;40.90;;;;;;5031200;28;20207;-68
2021/09/15 10:29:16;;;;;;;6.65;5.32;;;38.00;38.30;;;;;;5032293;28;20213;-68
2021/09/15 10:31:57;;;;;;;12.88;5.63;;;36.90;40.30;;;;;;5032200;28;20229;-69
2021/09/15 10:34:49;;;;;;;5.53;5.03;;;36.50;41.60;;;;;;5034162;28;20210;-67
2021/09/15 10:37:50;;;;;;;5.07;4.20;;;36.00;41.50;;;;;;5033161;28;20234;-68
2021/09/15 10:40:36;;;;;;;5.68;4.13;;;35.50;41.70;;;;;;5033858;28;20199;-68
2021/09/15 10:43:05;;;;;;;7.00;3.70;;;35.10;42.40;;;;;;5032688;28;20213;-70
2021/09/15 10:45:32;;;;;;;5.45;3.85;;;35.00;42.20;;;;;;5034133;28;20203;-68
2021/09/15 10:48:12;;;;;;;3.95;3.55;;;35.00;41.70;;;;;;5034081;28;20206;-68
2021/09/15 10:50:53;;;;;;;6.70;4.32;;;35.00;41.60;;;;;;5034106;28;20210;-69
2021/09/15 10:53:22;;;;;;;6.43;4.20;;;35.20;41.10;;;;;;5033559;28;20229;-67
2021/09/15 10:55:53;;;;;;;4.82;4.43;;;35.20;41.20;;;;;;5032520;28;20297;-68
2021/09/15 10:58:21;;;;;;;8.77;4.72;;;34.90;41.80;;;;;;5031983;28;20194;-67
2021/09/15 11:00:50;;;;;;;7.68;4.93;;;34.70;42.50;;;;;;5032504;28;20207;-68
2021/09/15 11:03:30;;;;;;;6.68;5.30;;;34.40;43.10;;;;;;5031995;28;20207;-68
2021/09/15 11:05:58;;;;;;;5.47;4.35;;;34.20;43.20;;;;;;5036149;28;20727;-68
2021/09/15 11:08:37;;;;;;;5.95;4.60;;;34.10;43.30;;;;;;4997221;28;20742;-68
2021/09/15 11:11:06;;;;;;;7.75;4.90;;;34.00;44.20;;;;;;4993962;28;20570;-69
2021/09/15 11:13:54;;;;;;;7.55;5.25;;;34.00;44.20;;;;;;4993917;28;20211;-68
2021/09/15 11:16:33;;;;;;;5.53;5.03;;;33.70;44.00;;;;;;4990692;28;20543;-67
2021/09/15 11:19:02;;;;;;;9.18;5.85;;;33.40;44.90;;;;;;4985389;28;20620;-68
2021/09/15 11:21:31;;;;;;;5.55;5.05;;;33.10;44.90;;;;;;4993208;28;20212;-68
2021/09/15 11:24:01;;;;;;;8.90;4.90;;;32.70;45.30;;;;;;4988631;28;20269;-68
2021/09/15 11:26:37;;;;;;;7.28;5.28;;;32.40;46.20;;;;;;4992850;28;20622;-66
2021/09/15 11:29:04;;;;;;;6.63;5.22;;;32.20;46.90;;;;;;4993453;28;20207;-68
2021/09/15 11:31:33;;;;;;;6.03;5.13;;;32.20;46.80;;;;;;4993604;28;20216;-67
2021/09/15 11:34:05;;;;;;;7.53;5.40;;;32.30;46.60;;;;;;4993009;28;20254;-67
2021/09/15 11:36:32;;;;;;;6.28;5.35;;;32.40;46.30;;;;;;4992891;28;20234;-66
2021/09/15 11:38:59;;;;;;;6.15;5.20;;;32.40;46.80;;;;;;4992668;28;20657;-68
2021/09/15 11:41:26;;;;;;;6.03;5.05;;;32.50;47.10;;;;;;4993254;28;20295;-68
2021/09/15 11:43:54;;;;;;;10.20;5.50;;;32.80;45.40;;;;;;4992749;28;20230;-67
2021/09/15 11:46:30;;;;;;;7.60;5.65;;;32.90;46.40;;;;;;4992760;28;20212;-66
2021/09/15 11:48:57;;;;;;;6.10;5.50;;;33.10;46.30;;;;;;4989342;28;20214;-67
2021/09/15 11:51:26;;;;;;;8.50;5.18;;;33.10;46.60;;;;;;4991643;28;20227;-70
2021/09/15 11:53:56;;;;;;;7.07;4.80;;;32.70;45.80;;;;;;4990915;28;20212;-70
2021/09/15 11:56:29;;;;;;;6.15;4.93;;;32.20;46.30;;;;;;4992562;28;20216;-65
2021/09/15 11:58:58;;;;;;;7.40;5.28;;;32.20;46.90;;;;;;4992082;28;20603;-67
2021/09/15 12:01:25;;;;;;;5.32;4.82;;;32.10;46.40;;;;;;4992572;28;20667;-66
2021/09/15 12:03:54;;;;;;;10.00;6.07;;;31.80;46.60;;;;;;4992096;28;20239;-67
2021/09/15 12:06:22;;;;;;;5.53;4.80;;;31.30;47.10;;;;;;4997036;28;20238;-69
2021/09/15 12:08:49;;;;;;;6.97;4.97;;;30.60;48.90;;;;;;5031423;28;20230;-67
2021/09/15 12:11:16;;;;;;;6.63;5.85;;;30.10;49.30;;;;;;5030787;28;20227;-67
2021/09/15 12:13:43;;;;;;;5.80;4.93;;;30.00;50.20;;;;;;5031161;28;20217;-67
2021/09/15 12:16:11;;;;;;;8.27;5.07;;;30.20;50.30;;;;;;5031091;28;20285;-67
2021/09/15 12:18:39;;;;;;;8.13;5.57;;;30.30;50.30;;;;;;5031818;28;20206;-68
2021/09/15 12:21:08;;;;;;;5.78;4.50;;;30.60;49.50;;;;;;5030282;28;20206;-67
2021/09/15 12:23:35;;;;;;;8.00;5.20;;;30.50;49.20;;;;;;5026288;28;20211;-68
2021/09/15 12:26:03;;;;;;;5.47;4.82;;;30.30;49.20;;;;;;5024588;28;20206;-68
2021/09/15 12:28:32;;;;;;;6.13;5.30;;;29.90;50.00;;;;;;5031567;28;20647;-68
2021/09/15 12:31:00;;;;;;;8.75;4.82;;;29.50;50.60;;;;;;5031859;28;20210;-68
2021/09/15 12:33:31;;;;;;;11.32;4.93;;;29.10;51.20;;;;;;5026280;28;20663;-67
2021/09/15 12:36:17;;;;;;;7.53;5.97;;;28.80;51.90;;;;;;5030450;28;20229;-67
2021/09/15 12:38:50;;;;;;;6.47;5.82;;;28.30;52.90;;;;;;5023390;28;20219;-67
2021/09/15 12:41:18;;;;;;;6.72;6.03;;;27.80;53.90;;;;;;5030610;28;20202;-68
2021/09/15 12:43:45;;;;;;;5.88;5.28;;;27.40;54.40;;;;;;5029970;28;20206;-67
2021/09/15 12:46:26;;;;;;;9.27;5.75;;;27.10;55.30;;;;;;5031119;28;20214;-68
2021/09/15 12:48:55;;;;;;;5.80;5.28;;;26.80;55.70;;;;;;5031335;28;20639;-69
2021/09/15 12:51:23;;;;;;;13.73;5.97;;;26.60;56.10;;;;;;5040722;28;20316;-68
2021/09/15 12:53:50;;;;;;;8.65;7.43;;;26.60;56.50;;;;;;5033020;28;20667;-68